createdAt,value
2022-08-09T00:01:42.840Z,101502.53
2022-08-09T00:04:24.875Z,101509.34
2022-08-09T00:06:52.066Z,101505.81
2022-08-09T00:09:21.039Z,101498.50
2022-08-09T00:12:02.926Z,101508.78
2022-08-09T00:14:37.967Z,101503.38
2022-08-09T00:17:05.849Z,101497.59
2022-08-09T00:19:32.499Z,101511.66
2022-08-09T00:22:01.353Z,101505.63
2022-08-09T00:24:31.998Z,101503.31
2022-08-09T00:27:00.316Z,101502.97
2022-08-09T00:29:39.727Z,101511.28
2022-08-09T00:32:26.771Z,101498.53
2022-08-09T00:34:54.964Z,101508.28
2022-08-09T00:37:21.704Z,101508.22
2022-08-09T00:40:13.493Z,101510.13
2022-08-09T00:44:11.595Z,101520.31
2022-08-09T00:45:21.801Z,101513.50
2022-08-09T00:47:48.485Z,101516.41
2022-08-09T00:50:15.272Z,101515.50
2022-08-09T00:52:42.460Z,101510.19
2022-08-09T00:55:16.716Z,101521.81
2022-08-09T00:57:59.232Z,101526.16
2022-08-09T01:00:27.291Z,101525.06
2022-08-09T01:02:57.802Z,101520.25
2022-08-09T01:05:53.607Z,101522.69
2022-08-09T01:08:49.576Z,101521.28
2022-08-09T01:11:25.729Z,101526.25
2022-08-09T01:14:06.900Z,101519.97
2022-08-09T01:16:40.885Z,101528.38
2022-08-09T01:20:03.009Z,101522.31
2022-08-09T01:22:51.244Z,101519.84
2022-08-09T01:25:24.891Z,101521.84
2022-08-09T01:27:53.927Z,101521.19
2022-08-09T01:30:28.730Z,101517.75
2022-08-09T01:33:03.605Z,101521.75
2022-08-09T01:35:42.902Z,101519.00
2022-08-09T01:38:15.023Z,101518.16
2022-08-09T01:40:52.669Z,101515.22
2022-08-09T01:43:32.408Z,101517.34
2022-08-09T01:46:18.286Z,101522.66
2022-08-09T01:48:53.802Z,101527.00
2022-08-09T01:51:22.699Z,101524.31
2022-08-09T01:53:53.778Z,101519.50
2022-08-09T01:56:25.469Z,101517.66
2022-08-09T01:58:52.849Z,101519.94
2022-08-09T02:01:30.415Z,101524.81
2022-08-09T02:04:08.474Z,101523.84
2022-08-09T02:06:58.558Z,101526.28
2022-08-09T02:09:26.609Z,101521.66
2022-08-09T02:12:10.980Z,101531.00
2022-08-09T02:14:42.561Z,101527.66
2022-08-09T02:17:29.542Z,101518.69
2022-08-09T02:19:58.384Z,101526.50
2022-08-09T02:22:34.806Z,101527.06
2022-08-09T02:25:06.633Z,101531.81
2022-08-09T02:27:53.492Z,101529.13
2022-08-09T02:30:22.705Z,101530.19
2022-08-09T02:32:56.912Z,101538.53
2022-08-09T02:36:01.716Z,101539.13
2022-08-09T02:38:28.845Z,101538.91
2022-08-09T02:41:09.563Z,101541.34
2022-08-09T02:43:47.796Z,101535.31
2022-08-09T02:46:22.522Z,101542.56
2022-08-09T02:48:51.387Z,101539.88
2022-08-09T02:51:20.970Z,101541.22
2022-08-09T02:54:01.456Z,101535.28
2022-08-09T02:56:32.134Z,101541.69
2022-08-09T02:59:04.013Z,101539.44
2022-08-09T03:01:58.556Z,101540.75
2022-08-09T03:04:20.009Z,101549.28
2022-08-09T03:06:48.866Z,101545.75
2022-08-09T03:09:17.434Z,101553.53
2022-08-09T03:12:06.750Z,101550.97
2022-08-09T03:14:36.595Z,101554.13
2022-08-09T03:17:05.659Z,101553.00
2022-08-09T03:19:52.370Z,101549.88
2022-08-09T03:22:25.467Z,101556.44
2022-08-09T03:25:06.695Z,101554.50
2022-08-09T03:27:51.963Z,101545.59
2022-08-09T03:30:33.642Z,101547.84
2022-08-09T03:33:13.131Z,101558.66
2022-08-09T03:36:13.115Z,101552.72
2022-08-09T03:38:32.730Z,101551.88
2022-08-09T03:40:59.481Z,101558.47
2022-08-09T03:43:31.633Z,101549.56
2022-08-09T03:46:04.969Z,101554.66
2022-08-09T03:48:52.101Z,101558.19
2022-08-09T03:51:54.234Z,101564.22
2022-08-09T03:54:11.524Z,101567.75
2022-08-09T03:56:40.934Z,101561.16
2022-08-09T03:59:17.119Z,101560.81
2022-08-09T04:01:49.480Z,101555.50
2022-08-09T04:04:17.404Z,101556.44
2022-08-09T04:06:49.186Z,101557.34
2022-08-09T04:09:47.445Z,101558.28
2022-08-09T04:12:11.703Z,101565.59
2022-08-09T04:15:00.893Z,101568.94
2022-08-09T04:17:25.808Z,101563.84
2022-08-09T04:19:56.436Z,101555.91
2022-08-09T04:22:24.607Z,101565.63
2022-08-09T04:24:54.765Z,101571.47
2022-08-09T04:27:21.956Z,101577.97
2022-08-09T04:29:50.471Z,101581.19
2022-08-09T04:32:31.372Z,101584.31
2022-08-09T04:35:08.518Z,101588.66
2022-08-09T04:37:45.515Z,101593.63
2022-08-09T04:40:28.635Z,101598.66
2022-08-09T04:43:01.120Z,101598.34
2022-08-09T04:45:30.745Z,101609.38
2022-08-09T04:48:02.163Z,101597.84
2022-08-09T04:50:35.142Z,101598.22
2022-08-09T04:53:13.070Z,101604.53
2022-08-09T04:55:43.332Z,101602.75
2022-08-09T04:58:32.782Z,101602.75
2022-08-09T05:01:01.431Z,101590.31
2022-08-09T05:03:40.142Z,101574.69
2022-08-09T05:06:22.120Z,101566.81
2022-08-09T05:09:00.291Z,101557.03
2022-08-09T05:11:32.473Z,101547.22
2022-08-09T05:14:05.808Z,101539.75
2022-08-09T05:16:43.466Z,101542.78
2022-08-09T05:19:26.177Z,101524.00
2022-08-09T05:21:58.992Z,101519.06
2022-08-09T05:24:27.039Z,101516.06
2022-08-09T05:26:54.473Z,101514.94
2022-08-09T05:29:24.221Z,101517.03
2022-08-09T05:31:56.731Z,101503.19
2022-08-09T05:34:31.289Z,101514.69
2022-08-09T05:37:05.878Z,101509.25
2022-08-09T05:39:43.322Z,101504.75
2022-08-09T05:42:20.879Z,101505.53
2022-08-09T05:45:00.627Z,101504.88
2022-08-09T05:47:30.155Z,101504.53
2022-08-09T05:50:30.923Z,101497.28
2022-08-09T05:52:44.235Z,101502.50
2022-08-09T05:55:20.631Z,101505.34
2022-08-09T05:57:56.507Z,101506.91
2022-08-09T06:00:32.887Z,101505.50
2022-08-09T06:03:02.147Z,101501.69
2022-08-09T06:05:57.074Z,101510.41
2022-08-09T06:08:18.999Z,101503.28
2022-08-09T06:10:45.931Z,101505.84
2022-08-09T06:13:18.866Z,101509.84
2022-08-09T06:15:51.576Z,101504.81
2022-08-09T06:18:23.732Z,101515.53
2022-08-09T06:20:55.670Z,101508.97
2022-08-09T06:23:57.192Z,101505.59
2022-08-09T06:26:20.128Z,101513.00
2022-08-09T06:29:00.445Z,101513.53
2022-08-09T06:31:39.680Z,101515.22
2022-08-09T06:34:20.336Z,101512.38
2022-08-09T06:36:50.662Z,101513.88
2022-08-09T06:39:47.462Z,101519.59
2022-08-09T06:42:13.356Z,101516.78
2022-08-09T06:44:40.234Z,101522.47
2022-08-09T06:47:06.908Z,101525.94
2022-08-09T06:50:12.234Z,101529.16
2022-08-09T06:52:25.238Z,101530.19
2022-08-09T06:54:52.254Z,101526.94
2022-08-09T06:57:25.854Z,101530.78
2022-08-09T07:00:51.087Z,101538.88
2022-08-09T07:02:56.192Z,101539.94
2022-08-09T07:05:53.709Z,101550.63
2022-08-09T07:08:11.745Z,101538.22
2022-08-09T07:10:39.213Z,101536.25
2022-08-09T07:13:27.233Z,101537.50
2022-08-09T07:16:35.323Z,101533.34
2022-08-09T07:18:39.567Z,101533.25
2022-08-09T07:21:07.990Z,101535.56
2022-08-09T07:23:36.201Z,101531.47
2022-08-09T07:26:04.241Z,101528.09
2022-08-09T07:28:34.828Z,101529.44
2022-08-09T07:31:04.897Z,101535.56
2022-08-09T07:33:52.683Z,101526.63
2022-08-09T07:36:22.057Z,101529.25
2022-08-09T07:38:56.821Z,101523.81
2022-08-09T07:41:27.454Z,101530.59
2022-08-09T07:44:00.308Z,101539.09
2022-08-09T07:46:27.920Z,101526.63
2022-08-09T07:48:59.459Z,101531.00
2022-08-09T07:52:06.331Z,101533.38
2022-08-09T07:54:14.647Z,101530.06
2022-08-09T07:56:49.052Z,101531.38
2022-08-09T07:59:25.426Z,101532.88
2022-08-09T08:02:00.881Z,101532.22
2022-08-09T08:04:31.760Z,101534.97
2022-08-09T08:07:15.121Z,101535.56
2022-08-09T08:09:53.441Z,101534.47
2022-08-09T08:12:31.133Z,101547.66
2022-08-09T08:14:58.432Z,101547.03
2022-08-09T08:17:51.875Z,101548.59
2022-08-09T08:20:13.754Z,101547.41
2022-08-09T08:22:41.104Z,101536.00
2022-08-09T08:25:13.665Z,101533.25
2022-08-09T08:27:42.862Z,101531.50
2022-08-09T08:30:11.383Z,101532.41
2022-08-09T08:32:52.190Z,101536.84
2022-08-09T08:35:19.984Z,101528.44
2022-08-09T08:38:01.885Z,101529.19
2022-08-09T08:40:32.831Z,101524.59
2022-08-09T08:43:01.589Z,101528.66
2022-08-09T08:45:51.364Z,101533.97
2022-08-09T08:48:22.661Z,101534.13
2022-08-09T08:50:56.095Z,101536.25
2022-08-09T08:53:23.050Z,101540.72
2022-08-09T08:55:59.188Z,101541.06
2022-08-09T08:58:29.546Z,101539.75
2022-08-09T09:00:57.927Z,101538.25
2022-08-09T09:03:37.162Z,101547.66
2022-08-09T09:06:05.803Z,101537.03
2022-08-09T09:08:42.095Z,101541.25
2022-08-09T09:11:17.928Z,101543.13
2022-08-09T09:13:57.556Z,101535.25
2022-08-09T09:16:34.041Z,101529.31
2022-08-09T09:19:37.639Z,101527.88
2022-08-09T09:22:03.784Z,101537.13
2022-08-09T09:24:37.833Z,101539.31
2022-08-09T09:27:06.574Z,101539.47
2022-08-09T09:30:10.653Z,101538.72
2022-08-09T09:32:34.335Z,101530.28
2022-08-09T09:35:15.812Z,101520.31
2022-08-09T09:37:45.820Z,101526.75
2022-08-09T09:40:12.652Z,101525.41
2022-08-09T09:42:42.860Z,101529.41
2022-08-09T09:45:14.398Z,101523.50
2022-08-09T09:47:58.783Z,101530.84
2022-08-09T09:50:49.630Z,101528.91
2022-08-09T09:53:20.641Z,101520.09
2022-08-09T09:56:04.291Z,101531.41
2022-08-09T09:58:49.100Z,101525.91
2022-08-09T10:01:37.214Z,101528.84
2022-08-09T10:04:22.870Z,101515.03
2022-08-09T10:06:58.112Z,101526.06
2022-08-09T10:09:25.496Z,101531.25
2022-08-09T10:12:14.243Z,101540.13
2022-08-09T10:14:49.964Z,101525.47
2022-08-09T10:17:50.272Z,101519.53
2022-08-09T10:20:32.451Z,101520.72
2022-08-09T10:23:20.453Z,101511.59
2022-08-09T10:26:04.242Z,101514.31
2022-08-09T10:28:36.698Z,101516.53
2022-08-09T10:34:10.186Z,101518.44
2022-08-09T10:36:42.694Z,101502.78
2022-08-09T10:39:13.843Z,101501.38
2022-08-09T10:41:42.994Z,101500.19
2022-08-09T10:44:10.535Z,101502.63
2022-08-09T10:48:12.099Z,101507.28
2022-08-09T10:50:01.123Z,101508.69
2022-08-09T10:52:54.270Z,101512.53
2022-08-09T10:55:24.320Z,101508.56
2022-08-09T10:57:55.524Z,101510.31
2022-08-09T11:00:51.145Z,101518.22
2022-08-09T11:03:27.263Z,101511.44
2022-08-09T11:06:18.678Z,101509.84
2022-08-09T11:08:53.488Z,101514.81
2022-08-09T11:11:21.923Z,101517.38
2022-08-09T11:14:28.277Z,101510.22
2022-08-09T11:16:56.136Z,101515.44
2022-08-09T11:20:10.043Z,101516.09
2022-08-09T11:22:44.993Z,101513.66
2022-08-09T11:25:25.982Z,101511.50
2022-08-09T11:28:38.495Z,101516.78
2022-08-09T11:31:49.489Z,101509.47
2022-08-09T11:34:43.458Z,101502.88
2022-08-09T11:37:18.067Z,101506.53
2022-08-09T11:40:05.428Z,101494.00
2022-08-09T11:42:50.419Z,101482.31
2022-08-09T11:45:43.128Z,101495.81
2022-08-09T11:48:25.953Z,101499.16
2022-08-09T11:52:49.482Z,101489.63
2022-08-09T11:53:58.409Z,101479.13
2022-08-09T11:56:47.881Z,101486.69
2022-08-09T11:59:29.972Z,101488.50
2022-08-09T12:02:34.787Z,101479.78
2022-08-09T12:04:58.021Z,101472.53
2022-08-09T12:07:41.643Z,101468.06
2022-08-09T12:10:31.927Z,101475.00
2022-08-09T12:12:58.407Z,101465.09
2022-08-09T12:15:49.297Z,101464.00
2022-08-09T12:18:29.849Z,101467.03
2022-08-09T12:21:00.543Z,101461.91
2022-08-09T12:23:58.781Z,101459.66
2022-08-09T12:26:19.832Z,101454.72
2022-08-09T12:29:12.697Z,101448.72
2022-08-09T12:32:02.118Z,101452.53
2022-08-09T12:34:41.158Z,101440.28
2022-08-09T12:37:22.243Z,101441.06
2022-08-09T12:40:07.990Z,101445.44
2022-08-09T12:42:37.260Z,101444.75
2022-08-09T12:45:33.322Z,101437.44
2022-08-09T12:47:54.935Z,101431.47
2022-08-09T12:50:24.842Z,101435.81
2022-08-09T12:53:08.443Z,101435.81
2022-08-09T12:56:12.272Z,101423.22
2022-08-09T12:58:27.870Z,101422.13
2022-08-09T13:00:55.567Z,101427.78
2022-08-09T13:03:56.981Z,101422.59
2022-08-09T13:06:34.410Z,101424.69
2022-08-09T13:09:06.114Z,101428.38
2022-08-09T13:11:39.390Z,101425.25
2022-08-09T13:14:41.459Z,101422.03
2022-08-09T13:17:08.548Z,101419.91
2022-08-09T13:20:09.378Z,101412.84
2022-08-09T13:22:35.477Z,101413.16
2022-08-09T13:25:13.699Z,101411.75
2022-08-09T13:27:48.897Z,101421.13
2022-08-09T13:30:49.425Z,101413.72
2022-08-09T13:33:51.667Z,101404.69
2022-08-09T13:36:41.840Z,101412.13
2022-08-09T13:41:17.537Z,101404.69
2022-08-09T13:42:00.709Z,101394.53
2022-08-09T13:44:28.499Z,101400.34
2022-08-09T13:47:29.355Z,101397.31
2022-08-09T13:49:57.695Z,101395.94
2022-08-09T13:52:28.775Z,101392.34
2022-08-09T13:55:00.993Z,101393.19
2022-08-09T13:57:37.198Z,101394.59
2022-08-09T14:00:13.040Z,101400.66
2022-08-09T14:02:42.264Z,101397.31
2022-08-09T14:05:58.212Z,101392.44
2022-08-09T14:08:15.838Z,101401.44
2022-08-09T14:10:49.303Z,101395.41
2022-08-09T14:14:17.362Z,101395.16
2022-08-09T14:16:13.862Z,101405.31
2022-08-09T14:18:43.185Z,101406.66
2022-08-09T14:21:17.496Z,101397.63
2022-08-09T14:23:54.277Z,101398.19
2022-08-09T14:26:25.182Z,101395.72
2022-08-09T14:28:52.334Z,101384.72
2022-08-09T14:31:19.144Z,101389.66
2022-08-09T14:33:52.226Z,101385.56
2022-08-09T14:36:21.533Z,101380.38
2022-08-09T14:38:52.582Z,101387.75
2022-08-09T14:41:34.771Z,101382.81
2022-08-09T14:44:07.489Z,101381.16
2022-08-09T14:47:00.987Z,101379.28
2022-08-09T14:49:26.329Z,101380.91
2022-08-09T14:51:58.599Z,101380.09
2022-08-09T14:54:27.926Z,101383.66
2022-08-09T14:56:57.711Z,101381.16
2022-08-09T14:59:25.335Z,101379.53
2022-08-09T15:01:54.266Z,101379.53
2022-08-09T15:04:23.465Z,101386.66
2022-08-09T15:06:51.708Z,101394.31
2022-08-09T15:10:03.811Z,101383.38
2022-08-09T15:12:07.770Z,101382.50
2022-08-09T15:14:38.741Z,101385.53
2022-08-09T15:17:09.503Z,101382.00
2022-08-09T15:19:36.874Z,101381.09
2022-08-09T15:22:22.007Z,101387.19
2022-08-09T15:24:52.814Z,101394.88
2022-08-09T15:27:19.496Z,101387.22
2022-08-09T15:30:57.552Z,101377.34
2022-08-09T15:32:35.716Z,101386.91
2022-08-09T15:35:40.068Z,101383.88
2022-08-09T15:37:56.826Z,101377.59
2022-08-09T15:40:37.331Z,101382.25
2022-08-09T15:43:10.236Z,101384.19
2022-08-09T15:45:51.964Z,101380.59
2022-08-09T15:48:29.148Z,101379.78
2022-08-09T15:50:58.027Z,101381.97
2022-08-09T15:54:03.446Z,101380.59
2022-08-09T15:56:28.434Z,101377.03
2022-08-09T15:58:56.983Z,101375.41
2022-08-09T16:01:23.716Z,101366.88
2022-08-09T16:03:51.045Z,101366.09
2022-08-09T16:06:32.876Z,101365.78
2022-08-09T16:09:04.826Z,101370.69
2022-08-09T16:11:33.311Z,101361.97
2022-08-09T16:14:03.857Z,101353.41
2022-08-09T16:16:34.748Z,101362.19
2022-08-09T16:19:05.270Z,101362.78
2022-08-09T16:21:35.205Z,101366.59
2022-08-09T16:24:04.644Z,101356.16
2022-08-09T16:26:35.464Z,101346.25
2022-08-09T16:29:11.036Z,101357.81
2022-08-09T16:32:10.495Z,101358.69
2022-08-09T16:34:27.106Z,101357.78
2022-08-09T16:36:56.389Z,101359.19
2022-08-09T16:39:25.797Z,101348.25
2022-08-09T16:42:04.229Z,101358.41
2022-08-09T16:44:32.609Z,101354.25
2022-08-09T16:47:01.859Z,101352.88
2022-08-09T16:50:30.097Z,101353.75
2022-08-09T16:52:33.758Z,101357.56
2022-08-09T16:55:00.546Z,101355.59
2022-08-09T16:57:27.697Z,101354.81
2022-08-09T17:00:15.067Z,101347.69
2022-08-09T17:02:42.762Z,101348.53
2022-08-09T17:05:19.617Z,101353.47
2022-08-09T17:08:43.016Z,101349.66
2022-08-09T17:10:34.158Z,101348.28
2022-08-09T17:13:03.495Z,101355.41
2022-08-09T17:16:00.192Z,101351.88
2022-08-09T17:18:26.895Z,101356.78
2022-08-09T17:20:57.075Z,101348.84
2022-08-09T17:23:23.856Z,101347.19
2022-08-09T17:26:10.473Z,101351.56
2022-08-09T17:28:39.450Z,101352.94
2022-08-09T17:31:06.168Z,101345.28
2022-08-09T17:33:37.991Z,101356.25
2022-08-09T17:36:05.650Z,101346.63
2022-08-09T17:38:39.346Z,101358.44
2022-08-09T17:41:08.067Z,101361.72
2022-08-09T17:43:37.161Z,101364.19
2022-08-09T17:46:09.296Z,101362.00
2022-08-09T17:48:39.872Z,101363.59
2022-08-09T17:51:18.779Z,101369.00
2022-08-09T17:53:52.870Z,101374.16
2022-08-09T17:56:22.169Z,101380.97
2022-08-09T17:58:58.351Z,101378.47
2022-08-09T18:02:03.219Z,101373.78
2022-08-09T18:04:13.217Z,101379.22
2022-08-09T18:06:39.923Z,101381.34
2022-08-09T18:09:16.695Z,101381.31
2022-08-09T18:12:05.951Z,101382.16
2022-08-09T18:14:32.138Z,101383.19
2022-08-09T18:17:01.536Z,101384.88
2022-08-09T18:20:55.000Z,101385.34
2022-08-09T18:22:17.172Z,101392.44
2022-08-09T18:24:46.361Z,101389.03
2022-08-09T18:27:49.140Z,101396.22
2022-08-09T18:30:42.771Z,101387.66
2022-08-09T18:32:54.074Z,101389.78
2022-08-09T18:35:21.059Z,101391.97
2022-08-09T18:38:07.696Z,101394.13
2022-08-09T18:40:35.645Z,101394.75
2022-08-09T18:43:03.788Z,101395.69
2022-08-09T18:46:47.833Z,101399.50
2022-08-09T18:48:17.880Z,101391.94
2022-08-09T18:50:45.956Z,101399.13
2022-08-09T18:53:16.428Z,101394.31
2022-08-09T18:55:56.189Z,101400.75
2022-08-09T18:58:33.121Z,101410.16
2022-08-09T19:01:00.420Z,101413.41
2022-08-09T19:03:27.466Z,101411.69
2022-08-09T19:06:03.076Z,101410.53
2022-08-09T19:08:33.068Z,101410.28
2022-08-09T19:10:59.723Z,101405.94
2022-08-09T19:13:38.114Z,101417.00
2022-08-09T19:16:13.263Z,101414.28
2022-08-09T19:18:50.158Z,101415.97
2022-08-09T19:21:18.909Z,101426.44
2022-08-09T19:24:37.015Z,101426.47
2022-08-09T19:26:51.448Z,101429.44
2022-08-09T19:29:20.845Z,101434.66
2022-08-09T19:31:51.093Z,101442.06
2022-08-09T19:34:23.066Z,101442.56
2022-08-09T19:36:52.630Z,101441.03
2022-08-09T19:39:20.712Z,101439.78
2022-08-09T19:41:55.645Z,101442.09
2022-08-09T19:44:23.179Z,101445.75
2022-08-09T19:46:53.442Z,101447.81
2022-08-09T19:50:07.639Z,101442.88
2022-08-09T19:52:08.366Z,101452.56
2022-08-09T19:54:42.930Z,101449.38
2022-08-09T19:57:10.138Z,101459.59
2022-08-09T19:59:58.386Z,101457.34
2022-08-09T20:04:07.481Z,101464.69
2022-08-09T20:05:14.700Z,101451.34
2022-08-09T20:07:59.323Z,101462.16
2022-08-09T20:10:34.742Z,101453.63
2022-08-09T20:13:04.881Z,101452.28
2022-08-09T20:16:33.264Z,101459.72
2022-08-09T20:18:18.833Z,101458.19
2022-08-09T20:20:46.984Z,101462.31
2022-08-09T20:23:13.668Z,101459.97
2022-08-09T20:25:51.427Z,101456.88
2022-08-09T20:28:24.469Z,101456.06
2022-08-09T20:30:55.233Z,101456.13
2022-08-09T20:33:22.016Z,101453.16
2022-08-09T20:35:51.599Z,101452.75
2022-08-09T20:38:22.515Z,101455.38
2022-08-09T20:41:00.964Z,101457.72
2022-08-09T20:43:27.813Z,101452.63
2022-08-09T20:45:59.419Z,101456.28
2022-08-09T20:48:42.520Z,101451.56
2022-08-09T20:51:19.459Z,101457.38
2022-08-09T20:53:46.692Z,101461.97
2022-08-09T20:56:21.115Z,101461.34
2022-08-09T20:58:54.684Z,101458.56
2022-08-09T21:01:34.517Z,101458.94
2022-08-09T21:05:51.969Z,101456.84
2022-08-09T21:06:58.436Z,101464.69
2022-08-09T21:09:42.022Z,101462.81
2022-08-09T21:14:41.800Z,101476.22
2022-08-09T21:18:23.134Z,101471.31
2022-08-09T21:20:17.808Z,101475.63
2022-08-09T21:22:46.928Z,101475.53
2022-08-09T21:25:37.715Z,101474.84
2022-08-09T21:28:07.731Z,101475.75
2022-08-09T21:30:40.638Z,101477.41
2022-08-09T21:33:08.332Z,101481.09
2022-08-09T21:35:40.874Z,101488.78
2022-08-09T21:38:21.033Z,101486.22
2022-08-09T21:40:58.623Z,101488.03
2022-08-09T21:43:56.191Z,101496.00
2022-08-09T21:46:12.786Z,101498.28
2022-08-09T21:48:42.774Z,101489.56
2022-08-09T21:51:24.193Z,101499.81
2022-08-09T21:53:54.662Z,101504.34
2022-08-09T21:56:33.708Z,101496.41
2022-08-09T21:59:09.629Z,101503.97
2022-08-09T22:01:59.056Z,101499.25
2022-08-09T22:04:55.232Z,101494.41
2022-08-09T22:07:10.589Z,101503.66
2022-08-09T22:09:43.472Z,101501.06
2022-08-09T22:12:19.078Z,101496.53
2022-08-09T22:14:57.906Z,101504.19
2022-08-09T22:17:24.595Z,101505.63
2022-08-09T22:19:58.516Z,101501.41
2022-08-09T22:22:27.671Z,101495.84
2022-08-09T22:26:04.120Z,101496.78
2022-08-09T22:27:41.024Z,101502.63
2022-08-09T22:30:09.800Z,101507.22
2022-08-09T22:32:37.581Z,101512.84
2022-08-09T22:36:02.676Z,101513.25
2022-08-09T22:38:06.598Z,101528.28
2022-08-09T22:40:35.341Z,101518.91
2022-08-09T22:43:08.685Z,101515.97
2022-08-09T22:48:18.406Z,101513.63
2022-08-09T22:48:35.331Z,101522.34
2022-08-09T22:51:10.853Z,101531.75
2022-08-09T22:54:02.927Z,101530.72
2022-08-09T22:56:33.797Z,101530.78
2022-08-09T22:59:05.655Z,101540.38
2022-08-09T23:01:51.985Z,101547.88
2022-08-09T23:04:19.010Z,101552.03
2022-08-09T23:07:04.254Z,101552.44
2022-08-09T23:09:38.977Z,101548.94
2022-08-09T23:12:06.427Z,101551.59
2022-08-09T23:14:42.314Z,101552.84
2022-08-09T23:17:10.491Z,101551.41
2022-08-09T23:20:00.909Z,101545.41
2022-08-09T23:22:24.047Z,101544.78
2022-08-09T23:24:50.680Z,101543.13
2022-08-09T23:27:17.412Z,101544.78
2022-08-09T23:29:44.069Z,101539.19
2022-08-09T23:32:10.849Z,101543.31
2022-08-09T23:34:37.627Z,101546.25
2022-08-09T23:37:04.979Z,101539.38
2022-08-09T23:39:31.913Z,101535.44
2022-08-09T23:41:58.910Z,101524.00
2022-08-09T23:44:25.640Z,101531.69
2022-08-09T23:46:57.272Z,101527.75
2022-08-09T23:49:25.731Z,101532.09
2022-08-09T23:51:53.807Z,101527.72
2022-08-09T23:54:21.614Z,101532.72
2022-08-09T23:56:55.910Z,101531.06
2022-08-09T23:59:25.409Z,101529.81
